Time;durP1;ratioP1;P1;durP2;ratioP2;P2;SDS_P1;SDS_P2;PMS_P1;PMS_P2;Temp;Humidity;BMP_temperature;BMP_pressure;BME280_temperature;BME280_humidity;BME280_pressure;Samples;Min_cycle;Max_cycle;Signal;HPM_P1;HPM_P2
2023/08/25 00:01:59;;;;;;;6.93;4.80;;;24.50;99.90;;;;;;5079127;28;20478;-60
2023/08/25 00:04:26;;;;;;;6.53;5.93;;;24.40;99.90;;;;;;5077248;28;20505;-61
2023/08/25 00:06:53;;;;;;;5.57;5.07;;;24.40;99.90;;;;;;5077213;28;20466;-62
2023/08/25 00:09:24;;;;;;;5.70;5.20;;;24.40;99.90;;;;;;5077344;28;20903;-60
2023/08/25 00:11:51;;;;;;;6.97;5.23;;;24.40;99.90;;;;;;5082408;28;20442;-60
2023/08/25 00:14:19;;;;;;;5.17;4.67;;;24.40;99.90;;;;;;5085663;28;20466;-59
2023/08/25 00:16:46;;;;;;;6.37;5.20;;;24.30;99.90;;;;;;5086010;28;20445;-61
2023/08/25 00:19:14;;;;;;;5.97;4.70;;;24.30;99.90;;;;;;5077260;28;20903;-58
2023/08/25 00:21:41;;;;;;;5.57;5.07;;;24.30;99.90;;;;;;5077090;28;20934;-61
2023/08/25 00:24:08;;;;;;;5.60;5.03;;;24.20;99.90;;;;;;5077359;28;20454;-57
2023/08/25 00:26:36;;;;;;;4.83;4.40;;;24.20;99.90;;;;;;5084649;28;20565;-59
2023/08/25 00:29:04;;;;;;;8.43;5.33;;;24.10;99.90;;;;;;5099882;28;20453;-61
2023/08/25 00:31:32;;;;;;;5.60;4.60;;;24.10;99.90;;;;;;5104335;28;20448;-59
2023/08/25 00:34:02;;;;;;;9.20;5.60;;;24.00;99.90;;;;;;5106323;28;20440;-62
2023/08/25 00:36:29;;;;;;;5.50;4.90;;;24.00;99.90;;;;;;5098087;28;20461;-56
2023/08/25 00:38:55;;;;;;;5.50;5.00;;;24.00;99.90;;;;;;5097299;28;20821;-62
2023/08/25 00:41:23;;;;;;;6.47;5.20;;;23.90;99.90;;;;;;5097532;28;20449;-61
2023/08/25 00:43:49;;;;;;;5.83;5.30;;;23.90;99.90;;;;;;5098082;28;20549;-60
2023/08/25 00:46:18;;;;;;;5.83;5.27;;;23.90;99.90;;;;;;5095790;28;20530;-60
2023/08/25 00:48:47;;;;;;;5.77;4.67;;;23.90;99.90;;;;;;5096915;28;20503;-61
2023/08/25 00:51:14;;;;;;;5.37;4.83;;;23.90;99.90;;;;;;5097876;28;20561;-61
2023/08/25 00:53:46;;;;;;;5.23;4.83;;;23.80;99.90;;;;;;5100465;28;20529;-60
2023/08/25 00:56:14;;;;;;;9.13;5.30;;;23.80;99.90;;;;;;5100750;28;20497;-60
2023/08/25 00:58:41;;;;;;;6.00;5.33;;;23.80;99.90;;;;;;5105141;28;20422;-60
2023/08/25 01:01:09;;;;;;;7.23;5.23;;;23.80;99.90;;;;;;5101903;28;20477;-60
2023/08/25 01:03:38;;;;;;;8.30;5.30;;;23.80;99.90;;;;;;5096692;28;20578;-61
2023/08/25 01:06:08;;;;;;;5.77;5.20;;;23.90;99.90;;;;;;5088759;28;20553;-61
2023/08/25 01:08:39;;;;;;;9.10;4.90;;;23.90;99.90;;;;;;5076388;28;20785;-61
2023/08/25 01:11:21;;;;;;;6.33;4.77;;;23.90;99.90;;;;;;5076543;28;20500;-59
2023/08/25 01:14:00;;;;;;;6.60;5.00;;;23.90;99.90;;;;;;5076591;28;20854;-60
2023/08/25 01:16:34;;;;;;;9.63;6.23;;;23.90;99.90;;;;;;5095886;28;20448;-61
2023/08/25 01:19:04;;;;;;;5.70;5.20;;;23.90;99.90;;;;;;5096655;28;20477;-60
2023/08/25 01:21:35;;;;;;;6.90;5.07;;;24.00;99.90;;;;;;5096025;28;20548;-60
2023/08/25 01:24:11;;;;;;;5.40;4.90;;;24.00;99.90;;;;;;5096349;28;20470;-61
2023/08/25 01:26:41;;;;;;;5.40;4.87;;;24.00;99.90;;;;;;5111949;28;20508;-55
2023/08/25 01:29:07;;;;;;;7.07;5.30;;;24.00;99.90;;;;;;5119783;28;20406;-56
2023/08/25 01:31:34;;;;;;;8.63;5.20;;;24.00;99.90;;;;;;5117076;28;20430;-59
2023/08/25 01:34:02;;;;;;;5.97;5.40;;;23.90;99.90;;;;;;5100450;28;20476;-59
2023/08/25 01:36:37;;;;;;;6.77;5.33;;;24.00;99.90;;;;;;5096015;28;20548;-60
2023/08/25 01:39:08;;;;;;;6.20;5.60;;;23.90;99.90;;;;;;5095919;28;20465;-60
2023/08/25 01:41:42;;;;;;;7.40;5.20;;;23.80;99.90;;;;;;5095585;28;20445;-59
2023/08/25 01:44:12;;;;;;;5.93;5.30;;;23.80;99.90;;;;;;5098576;28;20930;-60
2023/08/25 01:46:43;;;;;;;6.20;5.60;;;23.70;99.90;;;;;;5104771;28;20434;-57
2023/08/25 01:49:11;;;;;;;7.53;5.47;;;23.70;99.90;;;;;;5105622;28;20518;-59
2023/08/25 01:51:39;;;;;;;6.57;5.83;;;23.60;99.90;;;;;;5105227;28;20457;-60
2023/08/25 01:54:08;;;;;;;5.37;4.87;;;23.60;99.90;;;;;;5104798;28;20469;-61
2023/08/25 01:56:35;;;;;;;5.43;4.93;;;23.60;99.90;;;;;;5107321;28;20576;-61
2023/08/25 01:59:03;;;;;;;6.60;5.20;;;23.50;99.90;;;;;;5101320;28;20458;-59
2023/08/25 02:01:31;;;;;;;6.80;6.10;;;23.50;99.90;;;;;;5101889;28;20514;-60
2023/08/25 02:03:58;;;;;;;6.83;5.93;;;23.50;99.90;;;;;;5107111;28;20495;-61
2023/08/25 02:06:25;;;;;;;5.97;5.30;;;23.40;99.90;;;;;;5106743;28;20975;-60
2023/08/25 02:08:52;;;;;;;6.07;5.50;;;23.40;99.90;;;;;;5105063;28;20473;-56
2023/08/25 02:11:20;;;;;;;9.53;5.17;;;23.40;99.90;;;;;;5105002;28;20499;-59
2023/08/25 02:13:47;;;;;;;12.93;5.93;;;23.30;99.90;;;;;;5106187;28;20445;-59
2023/08/25 02:16:16;;;;;;;7.03;6.10;;;23.30;99.90;;;;;;5105567;28;20480;-59
2023/08/25 02:18:42;;;;;;;7.40;6.70;;;23.20;99.90;;;;;;5106430;28;20467;-59
2023/08/25 02:21:12;;;;;;;6.33;5.80;;;23.20;99.90;;;;;;5095477;28;20449;-60
2023/08/25 02:23:40;;;;;;;7.07;5.23;;;23.20;99.90;;;;;;5094759;28;21226;-60
2023/08/25 02:26:07;;;;;;;7.93;5.83;;;23.20;99.90;;;;;;5095374;28;20457;-59
2023/08/25 02:28:33;;;;;;;5.90;5.40;;;23.30;99.90;;;;;;5093723;28;20508;-61
2023/08/25 02:31:03;;;;;;;6.60;5.90;;;23.30;99.90;;;;;;5078155;28;20554;-60
2023/08/25 02:33:34;;;;;;;5.93;5.07;;;23.30;99.90;;;;;;5076628;28;20438;-59
2023/08/25 02:36:01;;;;;;;7.03;6.03;;;23.30;99.90;;;;;;5083156;28;20439;-61
2023/08/25 02:38:28;;;;;;;7.93;7.23;;;23.30;99.90;;;;;;5085321;28;20438;-61
2023/08/25 02:40:57;;;;;;;6.10;5.50;;;23.40;99.90;;;;;;5084049;28;20509;-61
2023/08/25 02:43:29;;;;;;;7.53;6.57;;;23.40;99.90;;;;;;5084596;28;20493;-57
2023/08/25 02:45:59;;;;;;;6.23;5.70;;;23.40;99.90;;;;;;5084556;28;20474;-60
2023/08/25 02:48:26;;;;;;;7.20;6.57;;;23.40;99.90;;;;;;5084630;28;20454;-60
2023/08/25 02:50:55;;;;;;;6.50;5.90;;;23.40;99.90;;;;;;5090198;28;20449;-60
2023/08/25 02:53:22;;;;;;;10.00;6.87;;;23.40;99.90;;;;;;5102200;28;20458;-60
2023/08/25 02:55:48;;;;;;;8.67;6.23;;;23.40;99.90;;;;;;5104040;28;20449;-60
2023/08/25 02:58:15;;;;;;;7.37;5.43;;;23.40;99.90;;;;;;5103208;28;20485;-60
2023/08/25 03:00:42;;;;;;;6.33;5.67;;;23.40;99.90;;;;;;5095360;28;20449;-61
2023/08/25 03:03:09;;;;;;;7.47;5.20;;;23.40;99.90;;;;;;5094402;28;20581;-61
2023/08/25 03:05:38;;;;;;;7.50;6.80;;;23.40;99.90;;;;;;5095722;28;20528;-60
2023/08/25 03:08:11;;;;;;;8.17;6.60;;;23.40;99.90;;;;;;5097734;28;20508;-60
2023/08/25 03:10:38;;;;;;;8.43;6.90;;;23.40;99.90;;;;;;5103380;28;20837;-59
2023/08/25 03:13:08;;;;;;;8.70;7.10;;;23.30;99.90;;;;;;5104956;28;20445;-60
2023/08/25 03:15:36;;;;;;;8.17;6.07;;;23.30;99.90;;;;;;5104965;28;20468;-60
2023/08/25 03:18:03;;;;;;;8.77;6.03;;;23.30;99.90;;;;;;5104065;28;20465;-60
2023/08/25 03:20:30;;;;;;;12.00;5.90;;;23.20;99.90;;;;;;5104634;28;20441;-58
2023/08/25 03:23:03;;;;;;;7.07;6.07;;;23.10;99.90;;;;;;5104135;28;20496;-59
2023/08/25 03:25:31;;;;;;;6.57;6.00;;;23.10;99.90;;;;;;5104248;28;20520;-59
2023/08/25 03:28:00;;;;;;;7.00;6.30;;;23.10;99.90;;;;;;5096253;28;20990;-59
2023/08/25 03:30:27;;;;;;;8.10;7.40;;;23.00;99.90;;;;;;5094632;28;20784;-61
2023/08/25 03:32:57;;;;;;;7.90;7.10;;;23.00;99.90;;;;;;5096941;28;20469;-60
2023/08/25 03:35:24;;;;;;;7.60;6.77;;;23.00;99.90;;;;;;5102207;28;20481;-61
2023/08/25 03:37:51;;;;;;;6.13;5.63;;;22.90;99.90;;;;;;5104531;28;20484;-60
2023/08/25 03:40:20;;;;;;;8.30;6.90;;;22.90;99.90;;;;;;5101382;28;20449;-57
2023/08/25 03:42:48;;;;;;;8.80;8.00;;;22.80;99.90;;;;;;5094166;28;20520;-60
2023/08/25 03:45:15;;;;;;;9.00;6.90;;;22.80;99.90;;;;;;5096630;28;20536;-61
2023/08/25 03:47:45;;;;;;;6.57;5.93;;;22.80;99.90;;;;;;5094941;28;20477;-62
2023/08/25 03:50:12;;;;;;;7.50;6.60;;;22.80;99.90;;;;;;5096926;28;20539;-62
2023/08/25 03:52:39;;;;;;;7.00;6.27;;;22.90;99.90;;;;;;5094627;28;20498;-61
2023/08/25 03:55:07;;;;;;;8.63;7.73;;;22.80;99.90;;;;;;5095371;28;20445;-60
2023/08/25 03:57:33;;;;;;;12.30;6.70;;;22.80;99.90;;;;;;5095746;28;20544;-62
2023/08/25 04:00:07;;;;;;;9.63;6.80;;;22.80;99.90;;;;;;5093879;28;20500;-62
2023/08/25 04:02:34;;;;;;;8.07;7.20;;;22.80;99.90;;;;;;5094107;28;20492;-61
2023/08/25 04:05:01;;;;;;;7.30;6.67;;;22.70;99.90;;;;;;5096290;28;20441;-61
2023/08/25 04:07:28;;;;;;;7.43;6.70;;;22.80;99.90;;;;;;5098961;28;20469;-61
2023/08/25 04:09:55;;;;;;;10.13;6.80;;;22.70;99.90;;;;;;5098950;28;20445;-61
2023/08/25 04:12:22;;;;;;;11.73;8.07;;;22.70;99.90;;;;;;5099268;28;20467;-62
2023/08/25 04:14:49;;;;;;;6.83;6.13;;;22.70;99.90;;;;;;5104435;28;20549;-60
2023/08/25 04:17:17;;;;;;;8.33;6.70;;;22.70;99.90;;;;;;5103451;28;20950;-60
2023/08/25 04:19:44;;;;;;;7.50;6.63;;;22.70;99.90;;;;;;5105143;28;20508;-59
2023/08/25 04:22:11;;;;;;;8.17;7.37;;;22.70;99.90;;;;;;5108074;28;20480;-60
2023/08/25 04:24:38;;;;;;;9.13;7.93;;;22.70;99.90;;;;;;5101776;28;20866;-61
2023/08/25 04:27:05;;;;;;;7.27;6.57;;;22.70;99.90;;;;;;5097505;28;20465;-61
2023/08/25 04:29:32;;;;;;;8.43;7.37;;;22.80;99.90;;;;;;5099412;28;20473;-59
2023/08/25 04:31:59;;;;;;;9.23;6.77;;;22.80;99.90;;;;;;5106069;28;20471;-60
2023/08/25 04:34:27;;;;;;;10.43;7.47;;;22.80;99.90;;;;;;5107006;28;20437;-60
2023/08/25 04:36:54;;;;;;;8.97;6.83;;;22.80;99.90;;;;;;5106982;28;20497;-60
2023/08/25 04:39:21;;;;;;;7.77;7.07;;;22.80;99.90;;;;;;5107172;28;20481;-60
2023/08/25 04:41:47;;;;;;;9.77;6.80;;;22.80;99.90;;;;;;5102660;28;20496;-60
2023/08/25 04:44:15;;;;;;;7.70;7.00;;;22.80;99.90;;;;;;5096882;28;20546;-61
2023/08/25 04:46:42;;;;;;;7.47;6.77;;;22.80;99.90;;;;;;5097111;28;20449;-61
2023/08/25 04:49:11;;;;;;;8.60;7.80;;;22.80;99.90;;;;;;5104711;28;20465;-60
2023/08/25 04:51:39;;;;;;;7.33;6.60;;;22.90;99.90;;;;;;5107190;28;20495;-61
2023/08/25 04:54:06;;;;;;;7.73;7.10;;;22.90;99.90;;;;;;5107401;28;20462;-60
2023/08/25 04:56:33;;;;;;;7.53;6.93;;;23.00;99.90;;;;;;5107215;28;20834;-60
2023/08/25 04:58:59;;;;;;;7.70;6.93;;;23.00;99.90;;;;;;5107158;28;20734;-61
2023/08/25 05:01:26;;;;;;;7.80;7.10;;;23.00;99.90;;;;;;5106885;28;20493;-60
2023/08/25 05:03:53;;;;;;;9.90;7.63;;;23.10;99.90;;;;;;5106540;28;20981;-61
2023/08/25 05:06:21;;;;;;;7.43;6.70;;;23.10;99.90;;;;;;5106900;28;20523;-59
2023/08/25 05:08:49;;;;;;;8.67;6.70;;;23.10;99.90;;;;;;5107445;28;20456;-57
2023/08/25 05:11:16;;;;;;;7.83;7.07;;;23.20;99.90;;;;;;5107051;28;20469;-60
2023/08/25 05:13:43;;;;;;;9.83;7.83;;;23.20;99.90;;;;;;5107447;28;20797;-60
2023/08/25 05:16:12;;;;;;;7.50;6.70;;;23.20;99.90;;;;;;5106265;28;20445;-57
2023/08/25 05:18:38;;;;;;;7.20;6.50;;;23.20;99.90;;;;;;5107120;28;20469;-58
2023/08/25 05:21:07;;;;;;;7.40;6.60;;;23.20;99.90;;;;;;5106874;28;20755;-61
2023/08/25 05:23:34;;;;;;;7.40;6.77;;;23.30;99.90;;;;;;5106040;28;21029;-59
2023/08/25 05:26:02;;;;;;;8.30;6.90;;;23.30;99.90;;;;;;5106871;28;20985;-61
2023/08/25 05:28:28;;;;;;;7.50;6.90;;;23.30;99.90;;;;;;5107068;28;20835;-60
2023/08/25 05:30:55;;;;;;;8.50;6.23;;;23.30;99.90;;;;;;5106398;28;20529;-57
2023/08/25 05:33:22;;;;;;;10.07;7.27;;;23.30;99.90;;;;;;5099217;28;20501;-58
2023/08/25 05:35:51;;;;;;;9.70;7.53;;;23.30;99.90;;;;;;5100942;28;20480;-59
2023/08/25 05:38:18;;;;;;;10.10;7.23;;;23.40;99.90;;;;;;5105993;28;20966;-59
2023/08/25 05:40:47;;;;;;;6.70;6.10;;;23.40;99.90;;;;;;5106553;28;20441;-59
2023/08/25 05:43:15;;;;;;;7.83;7.03;;;23.40;99.90;;;;;;5106834;28;20985;-60
2023/08/25 05:45:42;;;;;;;7.53;6.77;;;23.50;99.90;;;;;;5106930;28;20456;-60
2023/08/25 05:48:09;;;;;;;12.27;6.80;;;23.50;99.90;;;;;;5077529;28;20847;-61
2023/08/25 05:50:41;;;;;;;8.40;7.70;;;23.40;99.90;;;;;;5080377;28;20495;-60
2023/08/25 05:53:10;;;;;;;8.20;7.40;;;23.40;99.90;;;;;;5084252;28;20474;-58
2023/08/25 05:55:36;;;;;;;8.90;6.80;;;23.40;99.90;;;;;;5094589;28;20478;-59
2023/08/25 05:58:04;;;;;;;8.67;7.57;;;23.30;99.90;;;;;;5099436;28;20453;-59
2023/08/25 06:00:36;;;;;;;10.97;6.47;;;23.30;99.90;;;;;;5102875;28;20818;-59
2023/08/25 06:03:03;;;;;;;9.63;7.60;;;23.30;99.90;;;;;;5080370;28;20426;-59
2023/08/25 06:05:30;;;;;;;8.00;7.20;;;23.30;99.90;;;;;;5100534;28;20457;-59
2023/08/25 06:07:57;;;;;;;9.67;8.70;;;23.30;99.90;;;;;;5109786;28;20489;-60
2023/08/25 06:10:24;;;;;;;8.20;7.40;;;23.30;99.90;;;;;;5107871;28;20453;-59
2023/08/25 06:12:51;;;;;;;7.60;6.90;;;23.40;99.90;;;;;;5097233;28;20541;-60
2023/08/25 06:15:18;;;;;;;16.50;7.77;;;23.40;99.90;;;;;;5094023;28;20480;-57
2023/08/25 06:17:46;;;;;;;10.87;8.27;;;23.40;99.90;;;;;;5103808;28;20493;-58
2023/08/25 06:20:13;;;;;;;8.77;7.33;;;23.50;99.90;;;;;;5106790;28;20866;-59
2023/08/25 06:22:41;;;;;;;9.80;7.03;;;23.50;99.90;;;;;;5106346;28;20762;-59
2023/08/25 06:25:09;;;;;;;9.90;7.30;;;23.50;99.90;;;;;;5106160;28;20461;-59
2023/08/25 06:27:36;;;;;;;8.40;7.60;;;23.60;99.90;;;;;;5112442;28;20450;-57
2023/08/25 06:30:03;;;;;;;11.43;8.80;;;23.60;99.90;;;;;;5114937;28;20468;-58
2023/08/25 06:32:30;;;;;;;8.30;7.50;;;23.60;99.90;;;;;;5112220;28;20497;-60
2023/08/25 06:34:58;;;;;;;9.50;8.60;;;23.70;99.90;;;;;;5102927;28;20509;-60
2023/08/25 06:37:25;;;;;;;13.90;9.43;;;23.70;99.90;;;;;;5100304;28;20529;-59
2023/08/25 06:39:52;;;;;;;7.93;7.13;;;23.80;99.90;;;;;;5105213;28;20529;-55
2023/08/25 06:42:19;;;;;;;8.30;7.60;;;23.80;99.90;;;;;;5112550;28;20495;-58
2023/08/25 06:44:46;;;;;;;7.83;7.10;;;23.90;99.90;;;;;;5113476;28;20508;-58
2023/08/25 06:47:13;;;;;;;9.13;7.90;;;23.90;99.90;;;;;;5108198;28;20482;-59
2023/08/25 06:49:40;;;;;;;8.00;7.30;;;24.00;99.90;;;;;;5106448;28;20453;-58
2023/08/25 06:52:08;;;;;;;11.07;9.33;;;24.00;99.90;;;;;;5105558;28;20470;-60
2023/08/25 06:54:35;;;;;;;10.37;9.33;;;24.10;99.90;;;;;;5105056;28;20524;-58
2023/08/25 06:57:01;;;;;;;9.70;8.70;;;24.20;99.90;;;;;;5105915;28;20458;-60
2023/08/25 06:59:28;;;;;;;10.93;8.40;;;24.20;99.90;;;;;;5105928;28;20446;-58
2023/08/25 07:01:55;;;;;;;8.10;7.30;;;24.20;99.90;;;;;;5088929;28;20521;-59
2023/08/25 07:04:22;;;;;;;10.53;7.97;;;24.30;99.90;;;;;;5114141;28;20528;-59
2023/08/25 07:06:49;;;;;;;8.00;7.20;;;24.30;99.90;;;;;;5113591;28;20433;-58
2023/08/25 07:09:18;;;;;;;9.60;7.73;;;24.40;99.90;;;;;;5114120;28;20441;-59
2023/08/25 07:11:45;;;;;;;9.33;7.93;;;24.40;99.90;;;;;;5110908;28;20478;-59
2023/08/25 07:14:11;;;;;;;10.60;7.70;;;24.50;99.90;;;;;;5096091;28;20528;-60
2023/08/25 07:16:40;;;;;;;9.57;8.33;;;24.50;99.90;;;;;;5098520;28;20496;-59
2023/08/25 07:19:09;;;;;;;8.30;6.90;;;24.60;99.90;;;;;;5098805;28;20457;-59
2023/08/25 07:21:36;;;;;;;9.60;7.40;;;24.70;99.90;;;;;;5094490;28;20540;-59
2023/08/25 07:24:04;;;;;;;9.30;8.40;;;24.70;99.90;;;;;;5094160;28;20568;-59
2023/08/25 07:26:32;;;;;;;9.67;8.70;;;24.80;99.90;;;;;;5094221;28;20882;-59
2023/08/25 07:28:59;;;;;;;8.43;7.73;;;24.90;99.90;;;;;;5087314;28;20504;-58
2023/08/25 07:31:26;;;;;;;8.43;7.60;;;25.00;99.90;;;;;;5100664;28;20449;-55
2023/08/25 07:33:53;;;;;;;7.93;7.33;;;25.10;99.90;;;;;;5103564;28;20960;-56
2023/08/25 07:36:20;;;;;;;8.17;7.37;;;25.20;99.90;;;;;;5102999;28;20477;-60
2023/08/25 07:38:47;;;;;;;9.73;7.80;;;25.30;99.90;;;;;;5102810;28;20480;-62
2023/08/25 07:41:20;;;;;;;11.57;9.90;;;25.30;99.90;;;;;;5103066;28;20552;-61
2023/08/25 07:43:48;;;;;;;7.73;6.90;;;25.40;99.90;;;;;;5102799;28;20793;-61
2023/08/25 07:46:15;;;;;;;9.50;7.07;;;25.60;99.90;;;;;;5102537;28;20465;-62
2023/08/25 07:48:42;;;;;;;6.93;6.23;;;25.60;99.90;;;;;;5102117;28;20499;-57
2023/08/25 07:51:09;;;;;;;8.20;7.50;;;25.70;99.90;;;;;;5093340;28;20818;-61
2023/08/25 07:53:36;;;;;;;10.03;6.40;;;25.80;99.90;;;;;;5093786;28;20913;-61
2023/08/25 07:56:03;;;;;;;7.83;7.03;;;25.90;99.90;;;;;;5098044;28;20836;-63
2023/08/25 07:58:30;;;;;;;6.80;6.20;;;26.10;99.90;;;;;;5097756;28;20442;-62
2023/08/25 08:00:58;;;;;;;7.67;6.67;;;26.30;99.90;;;;;;5097705;28;20901;-62
2023/08/25 08:03:25;;;;;;;13.30;7.47;;;27.20;99.90;;;;;;5098061;28;21038;-62
2023/08/25 08:05:52;;;;;;;7.07;6.37;;;28.40;99.90;;;;;;5098253;28;20480;-58
2023/08/25 08:08:19;;;;;;;13.87;6.73;;;29.70;99.90;;;;;;5097614;28;20453;-62
2023/08/25 08:10:46;;;;;;;8.70;6.83;;;31.20;99.90;;;;;;5097585;28;20425;-62
2023/08/25 08:13:12;;;;;;;6.23;5.60;;;32.40;96.80;;;;;;5097785;28;20490;-63
2023/08/25 08:15:39;;;;;;;6.90;6.20;;;33.40;91.60;;;;;;5097419;28;20607;-61
2023/08/25 08:18:08;;;;;;;5.73;5.33;;;34.30;85.90;;;;;;5097425;28;20465;-61
2023/08/25 08:20:35;;;;;;;6.20;5.70;;;35.20;79.60;;;;;;5096947;28;20536;-60
2023/08/25 08:23:02;;;;;;;6.50;5.83;;;35.90;74.40;;;;;;5097602;28;20445;-62
2023/08/25 08:25:30;;;;;;;7.07;6.37;;;36.50;70.50;;;;;;5097330;28;20557;-61
2023/08/25 08:27:57;;;;;;;14.60;7.97;;;37.10;67.70;;;;;;5098594;28;20441;-63
2023/08/25 08:30:23;;;;;;;7.50;6.80;;;37.80;65.40;;;;;;5102579;28;20437;-60
2023/08/25 08:32:50;;;;;;;6.53;5.83;;;38.20;62.00;;;;;;5104234;28;20484;-57
2023/08/25 08:35:19;;;;;;;7.10;6.40;;;38.60;59.00;;;;;;5096946;28;20434;-64
2023/08/25 08:37:46;;;;;;;6.57;5.50;;;38.90;58.00;;;;;;5093486;28;20520;-62
2023/08/25 08:40:14;;;;;;;8.33;6.17;;;39.00;56.70;;;;;;5096830;28;20437;-62
2023/08/25 08:42:41;;;;;;;7.90;5.80;;;38.90;55.30;;;;;;5097808;28;20512;-61
2023/08/25 08:45:09;;;;;;;6.73;6.10;;;38.80;55.90;;;;;;5098044;28;20483;-63
2023/08/25 08:47:37;;;;;;;9.27;5.90;;;38.60;55.20;;;;;;5099503;28;20457;-59
2023/08/25 08:50:06;;;;;;;7.40;6.70;;;38.50;55.70;;;;;;5099621;28;20444;-63
2023/08/25 08:52:35;;;;;;;7.47;6.70;;;38.40;54.40;;;;;;5096611;28;20438;-63
2023/08/25 08:55:04;;;;;;;6.27;5.63;;;38.30;55.40;;;;;;5096742;28;20468;-61
2023/08/25 08:57:34;;;;;;;7.50;6.50;;;38.30;55.20;;;;;;5115171;27;20432;-55
2023/08/25 09:00:03;;;;;;;12.03;6.30;;;38.40;54.70;;;;;;5120135;27;20433;-55
2023/08/25 09:02:32;;;;;;;6.17;5.30;;;38.40;54.20;;;;;;5115093;27;20445;-62
2023/08/25 09:05:00;;;;;;;6.03;5.33;;;38.30;54.10;;;;;;5100902;28;20524;-62
2023/08/25 09:07:31;;;;;;;6.37;5.73;;;38.20;53.80;;;;;;5101413;28;20461;-63
2023/08/25 09:09:59;;;;;;;5.80;5.37;;;38.30;54.40;;;;;;5100135;28;20457;-62
2023/08/25 09:12:26;;;;;;;6.63;6.13;;;38.40;54.00;;;;;;5099126;28;20472;-61
2023/08/25 09:14:53;;;;;;;6.80;6.10;;;38.40;53.90;;;;;;5097114;28;20441;-61
2023/08/25 09:17:21;;;;;;;7.10;6.40;;;38.50;53.70;;;;;;5096815;28;20552;-63
2023/08/25 09:19:49;;;;;;;6.57;6.07;;;38.70;53.40;;;;;;5095773;28;20554;-63
2023/08/25 09:22:17;;;;;;;11.47;8.83;;;38.50;53.40;;;;;;5095225;28;20476;-62
2023/08/25 09:24:45;;;;;;;8.83;5.83;;;38.20;53.90;;;;;;5095752;28;20740;-62
2023/08/25 09:27:23;;;;;;;7.00;6.40;;;37.80;54.50;;;;;;5095154;28;20476;-60
2023/08/25 09:29:58;;;;;;;6.40;5.80;;;37.60;54.50;;;;;;5095447;28;20552;-62
2023/08/25 09:32:28;;;;;;;5.63;5.23;;;37.40;56.20;;;;;;5095839;28;20457;-59
2023/08/25 09:34:55;;;;;;;6.17;5.67;;;37.30;55.10;;;;;;5096001;28;20847;-62
2023/08/25 09:37:22;;;;;;;6.43;5.20;;;37.20;55.90;;;;;;5096409;28;20473;-63
2023/08/25 09:39:49;;;;;;;8.20;7.37;;;36.90;55.60;;;;;;5098278;28;20905;-62
2023/08/25 09:42:17;;;;;;;7.00;6.13;;;36.60;55.90;;;;;;5094328;22;20524;-60
2023/08/25 09:44:46;;;;;;;10.33;7.30;;;36.20;57.30;;;;;;5040213;28;20515;-62
2023/08/25 09:47:14;;;;;;;6.50;5.53;;;35.90;58.20;;;;;;5039714;28;20476;-61
2023/08/25 09:49:42;;;;;;;10.60;6.20;;;35.70;57.80;;;;;;5039847;28;20460;-62
2023/08/25 09:52:13;;;;;;;5.63;5.13;;;35.50;58.20;;;;;;5042038;28;20448;-60
2023/08/25 09:54:40;;;;;;;5.37;4.87;;;35.40;59.10;;;;;;5046398;28;20428;-63
2023/08/25 09:57:07;;;;;;;5.10;4.70;;;35.50;59.10;;;;;;5038878;28;20464;-64
2023/08/25 09:59:34;;;;;;;6.97;5.10;;;35.50;58.60;;;;;;5035248;28;20526;-63
2023/08/25 10:02:04;;;;;;;7.90;5.17;;;35.40;58.30;;;;;;5031673;28;20543;-62
2023/08/25 10:04:31;;;;;;;6.63;5.60;;;35.10;59.40;;;;;;5035529;28;20571;-62
2023/08/25 10:06:59;;;;;;;8.57;5.00;;;34.60;60.20;;;;;;5038289;28;20444;-53
2023/08/25 10:09:27;;;;;;;8.43;6.80;;;34.20;60.80;;;;;;5037761;28;20464;-61
2023/08/25 10:11:57;;;;;;;9.47;5.80;;;34.00;61.60;;;;;;5035232;28;20456;-62
2023/08/25 10:14:27;;;;;;;6.93;5.50;;;33.70;62.20;;;;;;5036716;28;20432;-62
2023/08/25 10:16:54;;;;;;;8.83;5.30;;;33.40;64.50;;;;;;5036806;28;20450;-61
2023/08/25 10:19:27;;;;;;;6.77;5.37;;;33.10;65.00;;;;;;5023787;28;20496;-62
2023/08/25 10:21:56;;;;;;;9.80;7.80;;;32.90;65.50;;;;;;5019767;28;20421;-62
2023/08/25 10:24:25;;;;;;;10.73;6.60;;;32.60;66.30;;;;;;5015489;28;20476;-62
2023/08/25 10:26:53;;;;;;;6.63;5.93;;;32.40;68.50;;;;;;5015304;28;20979;-64
2023/08/25 10:29:22;;;;;;;5.87;5.13;;;32.20;68.20;;;;;;5016548;28;20591;-65
2023/08/25 10:31:51;;;;;;;10.37;4.87;;;31.80;69.20;;;;;;5015261;28;20445;-62
2023/08/25 10:34:33;;;;;;;6.90;6.07;;;31.50;70.40;;;;;;5016114;28;20449;-61
2023/08/25 10:37:08;;;;;;;7.20;4.90;;;31.20;71.20;;;;;;5015452;28;20453;-62
2023/08/25 10:39:49;;;;;;;9.30;5.63;;;30.80;71.80;;;;;;5015161;28;20544;-63
2023/08/25 10:42:20;;;;;;;6.87;5.27;;;30.60;73.00;;;;;;5015260;28;20453;-62
2023/08/25 10:44:48;;;;;;;6.80;6.07;;;30.50;73.80;;;;;;5019636;28;20956;-61
2023/08/25 10:47:19;;;;;;;5.90;5.40;;;29.70;73.30;;;;;;5018815;28;20957;-61
2023/08/25 10:49:52;;;;;;;5.40;5.00;;;30.40;75.40;;;;;;5020535;28;20928;-64
2023/08/25 10:52:21;;;;;;;8.83;5.50;;;30.20;76.40;;;;;;5016755;28;20479;-62
2023/08/25 10:54:48;;;;;;;7.87;6.07;;;30.10;77.80;;;;;;5021156;28;20508;-62
2023/08/25 10:57:43;;;;;;;6.57;5.97;;;29.90;79.30;;;;;;5020519;28;20476;-62
2023/08/25 11:00:30;;;;;;;7.43;6.70;;;29.80;80.80;;;;;;5017403;28;20483;-63
2023/08/25 11:02:57;;;;;;;8.73;5.57;;;29.80;81.60;;;;;;5016632;28;20960;-61
2023/08/25 11:05:46;;;;;;;5.73;4.70;;;29.70;82.40;;;;;;5014976;28;20519;-62
2023/08/25 11:08:26;;;;;;;6.17;5.63;;;29.70;82.50;;;;;;5015099;28;20433;-61
2023/08/25 11:11:11;;;;;;;5.97;5.37;;;29.70;83.80;;;;;;5015375;28;20433;-61
2023/08/25 11:13:40;;;;;;;6.10;5.67;;;29.70;84.60;;;;;;5014824;28;20487;-59
2023/08/25 11:16:11;;;;;;;6.40;5.70;;;29.70;84.90;;;;;;5015332;28;20520;-65
2023/08/25 11:18:41;;;;;;;5.17;4.67;;;29.60;85.10;;;;;;5015504;28;20469;-62
2023/08/25 11:21:09;;;;;;;7.00;5.53;;;29.50;86.00;;;;;;5019164;28;20476;-61
2023/08/25 11:23:40;;;;;;;9.13;5.10;;;29.60;87.40;;;;;;5016014;28;20763;-62
2023/08/25 11:26:09;;;;;;;7.53;5.73;;;29.70;88.00;;;;;;5014886;28;20602;-63
2023/08/25 11:28:36;;;;;;;6.40;5.70;;;29.90;88.70;;;;;;5014974;28;20451;-61
2023/08/25 11:31:04;;;;;;;10.57;6.03;;;30.20;89.20;;;;;;5018768;28;20476;-62
2023/08/25 11:33:32;;;;;;;5.60;4.93;;;30.20;87.70;;;;;;5018522;28;20425;-62
2023/08/25 11:35:59;;;;;;;6.30;5.80;;;30.20;88.90;;;;;;5018806;28;20447;-61
2023/08/25 11:38:30;;;;;;;7.40;5.67;;;30.40;88.30;;;;;;5018716;28;20444;-63
2023/08/25 11:40:57;;;;;;;6.10;5.50;;;30.70;87.80;;;;;;5018963;28;20472;-62
2023/08/25 11:43:29;;;;;;;8.57;5.27;;;30.90;86.10;;;;;;5021658;28;20868;-60
2023/08/25 11:45:56;;;;;;;5.70;5.23;;;31.00;85.70;;;;;;5025079;28;20519;-61
2023/08/25 11:48:23;;;;;;;5.97;5.33;;;31.20;86.10;;;;;;5023969;28;20473;-61
2023/08/25 11:50:50;;;;;;;6.13;4.87;;;31.30;85.20;;;;;;5019358;28;20472;-62
2023/08/25 11:53:17;;;;;;;8.97;5.17;;;31.40;84.70;;;;;;5018261;28;20445;-61
2023/08/25 11:56:02;;;;;;;6.60;5.10;;;31.50;84.10;;;;;;5019403;28;20421;-61
2023/08/25 11:58:30;;;;;;;5.80;4.70;;;31.50;83.20;;;;;;5018253;28;20785;-62
2023/08/25 12:01:01;;;;;;;5.33;4.83;;;31.50;83.30;;;;;;5017926;28;20448;-61
2023/08/25 12:03:28;;;;;;;7.13;4.77;;;31.50;83.40;;;;;;5018313;28;20417;-60
2023/08/25 12:05:55;;;;;;;5.77;5.27;;;31.60;82.20;;;;;;5018352;28;20488;-61
2023/08/25 12:08:23;;;;;;;6.10;5.50;;;31.30;84.00;;;;;;5022327;28;20551;-62
2023/08/25 12:10:51;;;;;;;5.93;5.30;;;31.30;84.80;;;;;;5021751;28;20511;-61
2023/08/25 12:13:26;;;;;;;5.77;5.20;;;31.30;83.60;;;;;;5017839;28;20476;-62
2023/08/25 12:15:54;;;;;;;6.53;5.70;;;31.10;83.60;;;;;;5018172;28;20545;-62
2023/08/25 12:18:22;;;;;;;6.23;5.10;;;31.00;83.70;;;;;;5019469;28;20429;-62
2023/08/25 12:20:49;;;;;;;5.73;5.30;;;30.80;84.10;;;;;;5018678;28;20441;-60
2023/08/25 12:23:16;;;;;;;6.10;5.20;;;30.70;84.80;;;;;;5020517;28;20507;-60
2023/08/25 12:25:43;;;;;;;5.93;4.30;;;30.60;85.20;;;;;;5020109;28;20488;-61
2023/08/25 12:28:11;;;;;;;5.93;5.43;;;30.50;86.10;;;;;;5019967;28;20480;-61
2023/08/25 12:30:40;;;;;;;5.70;5.30;;;30.40;87.60;;;;;;5020547;28;20445;-61
2023/08/25 12:33:07;;;;;;;5.03;4.53;;;30.40;88.60;;;;;;5023203;28;20491;-62
2023/08/25 12:35:34;;;;;;;7.23;4.93;;;30.30;88.00;;;;;;5022591;28;20808;-60
2023/08/25 12:38:01;;;;;;;5.67;5.17;;;30.30;88.60;;;;;;5022493;28;20449;-59
2023/08/25 12:40:28;;;;;;;4.87;4.47;;;30.20;89.20;;;;;;5021669;28;20548;-63
2023/08/25 12:42:55;;;;;;;7.47;4.40;;;30.10;89.30;;;;;;5022145;28;20926;-62
2023/08/25 12:45:23;;;;;;;5.50;5.00;;;29.90;90.00;;;;;;5021863;28;20497;-58
2023/08/25 12:47:52;;;;;;;7.70;4.90;;;29.70;90.10;;;;;;5021640;28;20922;-59
2023/08/25 12:50:19;;;;;;;5.47;4.97;;;29.50;90.60;;;;;;5021527;28;20948;-63
2023/08/25 12:52:46;;;;;;;5.47;4.97;;;29.40;91.00;;;;;;5021765;28;20430;-60